createdAt,value
2024-01-11T08:54:47.999Z,182.68
2024-01-11T08:57:20.180Z,178.57
2024-01-11T08:59:52.334Z,165.88
2024-01-11T09:02:27.387Z,184.02
2024-01-11T09:04:59.955Z,162.07
2024-01-11T09:07:33.629Z,182.65
2024-01-11T09:10:10.022Z,179.95
2024-01-11T09:12:42.234Z,188.90
2024-01-11T09:15:23.824Z,180.70
2024-01-11T15:51:26.549Z,85.28
2024-01-11T15:53:58.636Z,76.60
2024-01-11T15:56:30.812Z,76.30
2024-01-11T15:59:04.713Z,76.60
2024-01-11T16:04:12.268Z,74.68
2024-01-11T16:06:44.701Z,73.03
2024-01-11T16:09:16.940Z,76.40
2024-01-11T16:11:49.895Z,84.72
2024-01-11T16:14:22.041Z,71.10
2024-01-11T16:16:54.270Z,79.72
2024-01-11T16:19:26.608Z,74.78
2024-01-11T16:21:58.944Z,82.65
2024-01-11T16:24:31.674Z,84.93
2024-01-11T16:27:06.090Z,85.82
2024-01-11T16:29:41.137Z,82.93
2024-01-11T16:32:16.308Z,90.15
2024-01-11T16:34:48.489Z,88.30
2024-01-11T16:37:21.665Z,80.32
2024-01-11T16:39:54.300Z,85.53
2024-01-11T16:42:29.795Z,84.43
2024-01-11T16:45:02.064Z,72.85
2024-01-11T16:47:37.581Z,93.50
2024-01-11T16:50:10.290Z,83.53
2024-01-11T16:52:42.612Z,90.32
2024-01-11T16:55:14.791Z,85.18
2024-01-11T16:57:47.072Z,85.63
2024-01-11T17:00:20.599Z,74.30
2024-01-11T17:02:52.927Z,94.90
2024-01-11T17:05:25.531Z,93.13
2024-01-11T17:07:57.759Z,93.75
2024-01-11T17:10:29.877Z,86.82
2024-01-11T17:13:02.308Z,94.45
